Temp: 5.4°C   Baro: 1006.7mb
  Wind: 4.0mph   Dir: N (11°)
  Rain: 4.2mm (0.0mm/hr)
  Solar: 0W/m2  Hum: 88%

Historic data

Bath Spa Weather Station Historical Data
Daily Summary for September 11, 2019 Units:  English    Metric   Both
Daily Weekly Monthly Yearly Custom
  High: Low: Average:
Temperature: 45.9 °F 34.3 °F 40.4 °F
Dew Point: 40.8 °F 32.5 °F 37.4 °F
Humidity: 94% 80% 89%
Wind Speed: 12.2mph 0mph 2.7mph
Wind Gust: 27mph - -
Wind- - WSW
Pressure: 29.78 in 29.55 in -
Precipitation: 0.06 in    
Historical Graphs
 
 
Tabular Data for September 11, 2019
Time Temperature Dew Point Pressure Wind Wind Speed Wind Gust Humidity Rainfall Rate (Hourly) solar
00:04 43.1 °F 40.6 °F 29.78 in West 0.5 mph 4 mph 91% 0.01 in 0 W/m2
00:09 43.2 °F 40.6 °F 29.78 in West 1.2 mph 5 mph 91% 0.01 in 0 W/m2
00:14 43.3 °F 40.7 °F 29.78 in WSW 2.1 mph 5 mph 91% 0.01 in 0 W/m2
00:19 43.3 °F 40.8 °F 29.78 in WSW 3.5 mph 8 mph 91% 0.01 in 0 W/m2
00:24 43.5 °F 40.8 °F 29.78 in WSW 3.3 mph 7 mph 90% 0.01 in 0 W/m2
00:29 43.5 °F 40.8 °F 29.78 in West 3.5 mph 7 mph 90% 0.01 in 0 W/m2
00:34 43.5 °F 40.7 °F 29.78 in West 2 mph 7 mph 89.8% 0.01 in 0 W/m2
00:39 43.3 °F 40.3 °F 29.78 in West 0.2 mph 6 mph 89% 0.01 in 0 W/m2
00:44 43.2 °F 40.2 °F 29.78 in West 1.1 mph 4 mph 89% 0.01 in 0 W/m2
00:49 43 °F 39.9 °F 29.78 in West 0.6 mph 3 mph 89% 0.01 in 0 W/m2
00:54 42.8 °F 39.7 °F 29.78 in West 0.8 mph 4 mph 89% 0.00 in 0 W/m2
00:59 42.5 °F 39.5 °F 29.78 in West 1.1 mph 4 mph 89% 0.00 in 0 W/m2
01:04 42.4 °F 39.4 °F 29.78 in West 0.8 mph 3 mph 89% 0.00 in 0 W/m2
01:09 42.3 °F 39.2 °F 29.78 in West 0.6 mph 2 mph 89% 0.00 in 0 W/m2
01:14 42.1 °F 39 °F 29.78 in West 1.5 mph 3 mph 89% 0.00 in 0 W/m2
01:19 42.1 °F 39 °F 29.78 in West 0.2 mph 3 mph 89% 0.00 in 0 W/m2
01:24 42 °F 39.2 °F 29.78 in West 2.4 mph 6 mph 89.8% 0.00 in 0 W/m2
01:29 42 °F 39.3 °F 29.78 in West 1.5 mph 6 mph 90% 0.00 in 0 W/m2
01:34 42.1 °F 39.4 °F 29.78 in Calm   6 mph 90% 0.00 in 0 W/m2
01:39 41.9 °F 39.2 °F 29.78 in Calm   3 mph 90% 0.00 in 0 W/m2
01:44 41.7 °F 39 °F 29.78 in West 0.8 mph 6 mph 90% 0.00 in 0 W/m2
01:49 41.7 °F 39 °F 29.78 in West 0.2 mph 2 mph 90% 0.00 in 0 W/m2
01:54 41.7 °F 39 °F 29.78 in Calm     90% 0.00 in 0 W/m2
01:59 41.7 °F 39 °F 29.78 in Calm     90% 0.00 in 0 W/m2
02:04 41.5 °F 38.8 °F 29.78 in Calm     90% 0.00 in 0 W/m2
02:09 41.5 °F 38.8 °F 29.78 in Calm     90% 0.00 in 0 W/m2
02:14 41.4 °F 38.7 °F 29.78 in Calm     90% 0.00 in 0 W/m2
02:19 41 °F 38.3 °F 29.78 in Calm     90% 0.00 in 0 W/m2
02:24 40.6 °F 37.9 °F 29.78 in Calm     90% 0.00 in 0 W/m2
02:29 40.3 °F 37.7 °F 29.78 in West 0.3 mph 1 mph 90% 0.00 in 0 W/m2
02:34 40.1 °F 37.4 °F 29.78 in Calm   1 mph 90% 0.00 in 0 W/m2
02:39 39.9 °F 37.5 °F 29.78 in West 1.8 mph 4 mph 90.8% 0.00 in 0 W/m2
02:44 39.9 °F 37.6 °F 29.78 in West 1.5 mph 6 mph 91% 0.00 in 0 W/m2
02:49 39.9 °F 37.6 °F 29.78 in West 1.1 mph 4 mph 91% 0.00 in 0 W/m2
02:54 39.8 °F 37.5 °F 29.78 in Calm   3 mph 91% 0.00 in 0 W/m2
02:59 39.7 °F 37.4 °F 29.78 in West 1.2 mph 3 mph 91% 0.00 in 0 W/m2
03:04 39.7 °F 37.3 °F 29.78 in West 0.5 mph 2 mph 91% 0.00 in 0 W/m2
03:09 39.6 °F 37.2 °F 29.78 in West 1 mph 3 mph 91% 0.00 in 0 W/m2
03:14 39.7 °F 37.4 °F 29.78 in West 0.8 mph 3 mph 91.4% 0.00 in 0 W/m2
03:19 39.6 °F 37.4 °F 29.78 in West 0.4 mph 3 mph 92% 0.00 in 0 W/m2
03:24 39.4 °F 37.2 °F 29.78 in West 0.5 mph 3 mph 92% 0.00 in 0 W/m2
03:29 39.4 °F 37.2 °F 29.78 in West 0.2 mph 2 mph 92% 0.00 in 0 W/m2
03:34 39.4 °F 37.2 °F 29.78 in West 0.2 mph 2 mph 92% 0.00 in 0 W/m2
03:39 39.6 °F 37.3 °F 29.77 in West 0.2 mph 1 mph 92% 0.00 in 0 W/m2
03:44 39.6 °F 37.4 °F 29.78 in West 0.6 mph 4 mph 92% 0.00 in 0 W/m2
03:49 39.7 °F 37.5 °F 29.77 in West 1.4 mph 4 mph 92% 0.00 in 0 W/m2
03:54 39.9 °F 37.8 °F 29.77 in West 0.6 mph 4 mph 92% 0.00 in 0 W/m2
03:59 39.9 °F 37.8 °F 29.77 in Calm   4 mph 92% 0.00 in 0 W/m2
04:04 39.8 °F 37.7 °F 29.77 in Calm   4 mph 92% 0.00 in 0 W/m2
04:09 39.7 °F 37.6 °F 29.77 in West 0.5 mph 3 mph 92% 0.00 in 0 W/m2
04:14 39.7 °F 37.5 °F 29.76 in West 3.6 mph 6 mph 92% 0.00 in 0 W/m2
04:19 39.7 °F 37.6 °F 29.76 in Calm   6 mph 92% 0.00 in 0 W/m2
04:24 39.6 °F 37.4 °F 29.77 in West 0.8 mph 4 mph 92% 0.00 in 0 W/m2
04:29 39.6 °F 37.4 °F 29.76 in Calm   2 mph 92% 0.00 in 0 W/m2
04:34 39.6 °F 37.4 °F 29.76 in West 0.4 mph 2 mph 92% 0.00 in 0 W/m2
04:39 39.6 °F 37.4 °F 29.76 in West 1.2 mph 5 mph 92% 0.00 in 0 W/m2
04:44 39.7 °F 37.6 °F 29.76 in WSW 1.7 mph 6 mph 92% 0.00 in 0 W/m2
04:49 39.7 °F 37.6 °F 29.75 in SW 0.8 mph 4 mph 92% 0.00 in 0 W/m2
04:54 39.7 °F 37.6 °F 29.75 in Calm   1 mph 92% 0.00 in 0 W/m2
04:59 39.6 °F 37.4 °F 29.75 in SW 0.6 mph 3 mph 92% 0.00 in 0 W/m2
05:04 39.6 °F 37.4 °F 29.75 in SW 3.2 mph 6 mph 92% 0.00 in 0 W/m2
05:09 39.6 °F 37.5 °F 29.75 in SW 1.3 mph 5 mph 92% 0.00 in 0 W/m2
05:14 39.6 °F 37.5 °F 29.75 in SW 1 mph 4 mph 92% 0.00 in 0 W/m2
05:19 39.6 °F 37.4 °F 29.74 in SW 1.8 mph 4 mph 92% 0.00 in 0 W/m2
05:24 39.6 °F 37.4 °F 29.74 in WSW 2.2 mph 6 mph 92% 0.00 in 0 W/m2
05:29 39.7 °F 37.5 °F 29.74 in WSW 1.3 mph 4 mph 91.4% 0.00 in 0 W/m2
05:34 39.7 °F 37.4 °F 29.74 in WSW 1.5 mph 4 mph 91% 0.00 in 0 W/m2
05:39 39.7 °F 37.3 °F 29.74 in WSW 2.2 mph 4 mph 91% 0.00 in 0 W/m2
05:44 39.6 °F 37.2 °F 29.73 in WSW 1.4 mph 4 mph 91% 0.00 in 0 W/m2
05:49 39.6 °F 37.2 °F 29.73 in WSW 1.3 mph 4 mph 91% 0.00 in 0 W/m2
05:54 39.6 °F 37.2 °F 29.73 in WSW 0.6 mph 3 mph 91% 0.00 in 0 W/m2
05:59 39.6 °F 37.2 °F 29.73 in Calm   4 mph 91% 0.00 in 0 W/m2
06:04 39.7 °F 37.3 °F 29.72 in WSW 4.7 mph 6 mph 91% 0.00 in 0 W/m2
06:09 40.2 °F 37.8 °F 29.72 in SW 4 mph 10 mph 91% 0.00 in 0 W/m2
06:14 40.6 °F 38.3 °F 29.72 in SSW 6.4 mph 10 mph 91% 0.00 in 0 W/m2
06:19 40.8 °F 38.5 °F 29.72 in SW 4.5 mph 8 mph 91% 0.00 in 0 W/m2
06:24 40.8 °F 38.4 °F 29.72 in SSW 2.9 mph 8 mph 90.6% 0.00 in 0 W/m2
06:29 41.1 °F 38.5 °F 29.72 in SSW 3 mph 8 mph 90.3% 0.00 in 0 W/m2
06:34 41.2 °F 38.5 °F 29.72 in SSW 3.3 mph 7 mph 90% 0.00 in 0 W/m2
06:39 41.2 °F 38.5 °F 29.72 in SSW 1.7 mph 9 mph 90% 0.00 in 0 W/m2
06:44 41 °F 38 °F 29.71 in SSW 4.8 mph 12 mph 89.2% 0.00 in 0 W/m2
06:49 41 °F 38 °F 29.71 in SSW 3.6 mph 11 mph 89% 0.00 in 0 W/m2
06:54 41.2 °F 38.1 °F 29.71 in SSW 3.7 mph 8 mph 89% 0.00 in 0 W/m2
06:59 41.2 °F 38.1 °F 29.71 in SSW 3.3 mph 7 mph 89% 0.00 in 0 W/m2
07:04 41.1 °F 38 °F 29.71 in South 3.4 mph 10 mph 89% 0.00 in 0 W/m2
07:09 41 °F 37.9 °F 29.71 in South 5.7 mph 12 mph 89% 0.00 in 0 W/m2
07:14 40.8 °F 37.8 °F 29.71 in South 2.4 mph 12 mph 89% 0.00 in 0 W/m2
07:19 41 °F 37.9 °F 29.71 in South 3.5 mph 8 mph 89% 0.00 in 0 W/m2
07:24 41.2 °F 38.1 °F 29.70 in South 6.8 mph 12 mph 89% 0.00 in 0 W/m2
07:29 41.2 °F 38.1 °F 29.70 in SSW 6.2 mph 13 mph 89% 0.00 in 0 W/m2
07:34 41.2 °F 38.1 °F 29.70 in SSW 7.8 mph 18 mph 89% 0.00 in 0 W/m2
07:39 41.3 °F 38.2 °F 29.70 in South 5 mph 18 mph 89% 0.00 in 0 W/m2
07:43 41.3 °F 38.1 °F 29.70 in South 7.7 mph 19 mph 88.5% 0.00 in 0 W/m2
07:49 41.2 °F 37.9 °F 29.70 in South 2.8 mph 6 mph 88% 0.00 in 0 W/m2
07:54 41.2 °F 37.9 °F 29.70 in South 1.2 mph 7 mph 88% 0.00 in 0 W/m2
07:59 41.2 °F 37.9 °F 29.70 in South 2.2 mph 7 mph 88% 0.00 in 0 W/m2
08:04 41.2 °F 37.9 °F 29.70 in South 1.7 mph 8 mph 88% 0.00 in 5 W/m2
08:09 41.2 °F 37.9 °F 29.70 in South 3.8 mph 9 mph 88% 0.00 in 7 W/m2
08:14 41.2 °F 37.9 °F 29.69 in South 0.2 mph 9 mph 88% 0.00 in 9 W/m2
08:19 41 °F 37.8 °F 29.69 in South 1.4 mph 4 mph 88% 0.00 in 11 W/m2
08:24 40.6 °F 37.4 °F 29.69 in South 1.8 mph 4 mph 88% 0.00 in 12 W/m2
08:29 40.5 °F 37.2 °F 29.69 in South 2.1 mph 6 mph 88% 0.00 in 12 W/m2
08:34 40.5 °F 37.2 °F 29.69 in South 0.4 mph 2 mph 88% 0.00 in 14 W/m2
08:39 40.5 °F 37.3 °F 29.69 in SSW 1.2 mph 5 mph 88% 0.00 in 16 W/m2
08:44 40.8 °F 37.6 °F 29.68 in SW 3.4 mph 8 mph 88% 0.00 in 23 W/m2
08:49 41.1 °F 37.9 °F 29.68 in SW 4.4 mph 8 mph 88% 0.00 in 30 W/m2
08:54 41.2 °F 37.9 °F 29.68 in SSW 4.4 mph 8 mph 88% 0.00 in 37 W/m2
08:59 41.5 °F 38.2 °F 29.67 in SSW 2.5 mph 8 mph 88% 0.00 in 53 W/m2
09:04 41.7 °F 38.2 °F 29.67 in SSW 8 mph 12 mph 87.4% 0.00 in 56 W/m2
09:09 41.9 °F 38.3 °F 29.67 in SSW 4.7 mph 12 mph 87% 0.00 in 49 W/m2
09:14 42.3 °F 38.7 °F 29.67 in SSW 1 mph 5 mph 87% 0.00 in 33 W/m2
09:19 42.5 °F 38.6 °F 29.67 in SSW 4.3 mph 7 mph 86% 0.00 in 40 W/m2
09:24 42.6 °F 38.7 °F 29.67 in SSW 5.4 mph 10 mph 85.6% 0.00 in 39 W/m2
09:29 42.8 °F 38.7 °F 29.67 in SW 4 mph 10 mph 85% 0.00 in 37 W/m2
09:34 42.9 °F 38.8 °F 29.67 in South 0.9 mph 6 mph 85% 0.00 in 37 W/m2
09:39 42.8 °F 38.4 °F 29.67 in SSW 2 mph 7 mph 84.3% 0.00 in 39 W/m2
09:44 42.8 °F 38.3 °F 29.67 in SW 3.6 mph 9 mph 84% 0.00 in 58 W/m2
09:49 43.1 °F 38.6 °F 29.66 in SW 7.4 mph 12 mph 84% 0.00 in 62 W/m2
09:54 43.5 °F 38.7 °F 29.66 in SW 6.4 mph 17 mph 83% 0.00 in 58 W/m2
09:59 44.1 °F 39.2 °F 29.66 in SW 0.2 mph 3 mph 83% 0.00 in 58 W/m2
10:04 44.4 °F 39.4 °F 29.65 in SSE 5.8 mph 10 mph 82.4% 0.00 in 76 W/m2
10:09 44.3 °F 39 °F 29.65 in South 2.2 mph 12 mph 81.8% 0.00 in 69 W/m2
10:14 44.7 °F 39.7 °F 29.64 in Calm   3 mph 82.5% 0.00 in 67 W/m2
10:19 44.8 °F 39.6 °F 29.64 in SW 2.8 mph 9 mph 82% 0.00 in 83 W/m2
10:24 44.8 °F 39.6 °F 29.63 in SW 8 mph 14 mph 81.6% 0.00 in 109 W/m2
10:29 45.1 °F 39.8 °F 29.63 in SSW 9.4 mph 19 mph 81.6% 0.00 in 125 W/m2
10:34 45.3 °F 39.9 °F 29.63 in SSW 4.2 mph 9 mph 81% 0.00 in 134 W/m2
10:39 45.7 °F 40.1 °F 29.62 in SW 3.3 mph 13 mph 81% 0.00 in 148 W/m2
10:44 45.9 °F 40.2 °F 29.62 in SSW 9.6 mph 18 mph 80.6% 0.00 in 146 W/m2
10:49 45.9 °F 40.1 °F 29.62 in SW 6 mph 18 mph 80% 0.00 in 123 W/m2
10:54 45.9 °F 40.2 °F 29.62 in SW 9.6 mph 18 mph 80.4% 0.00 in 113 W/m2
10:59 45.7 °F 39.9 °F 29.62 in SSW 10.6 mph 27 mph 80% 0.00 in 72 W/m2
11:04 45.3 °F 39.6 °F 29.62 in SSW 4.2 mph 12 mph 80% 0.00 in 60 W/m2
11:09 45.1 °F 39.6 °F 29.61 in SSW 4.6 mph 12 mph 80.6% 0.00 in 74 W/m2
11:14 45 °F 39.6 °F 29.60 in SSW 8.4 mph 16 mph 81% 0.00 in 84 W/m2
11:19 44.8 °F 39.4 °F 29.60 in SW 9 mph 22 mph 81% 0.00 in 79 W/m2
11:23 44.9 °F 39.5 °F 29.60 in SW 3.5 mph 12 mph 81% 0.00 in 47 W/m2
11:29 44.8 °F 39.4 °F 29.60 in SW 2.8 mph 8 mph 81% 0.00 in 39 W/m2
11:34 44.8 °F 39.4 °F 29.60 in SSW 4 mph 10 mph 81% 0.00 in 98 W/m2
11:39 44.8 °F 39.4 °F 29.60 in SSW 7.4 mph 17 mph 81% 0.00 in 116 W/m2
11:44 44.8 °F 39.6 °F 29.59 in South 6 mph 16 mph 82% 0.01 in 128 W/m2
11:49 44.3 °F 39.2 °F 29.59 in SW 5.3 mph 23 mph 82.2% 0.01 in 165 W/m2
11:54 44.3 °F 39.5 °F 29.59 in SSW 5 mph 23 mph 83% 0.01 in 167 W/m2
11:59 44.2 °F 39.5 °F 29.59 in SW 2.2 mph 23 mph 83.3% 0.01 in 95 W/m2
12:04 44.2 °F 39.7 °F 29.58 in SSW 3.2 mph 11 mph 84% 0.01 in 188 W/m2
12:09 44.2 °F 39.6 °F 29.57 in SSW 4.1 mph 11 mph 83.6% 0.01 in 146 W/m2
12:14 44.5 °F 40 °F 29.57 in SSW 3.2 mph 11 mph 83.8% 0.01 in 248 W/m2
12:19 45 °F 40.2 °F 29.57 in SSW 5.6 mph 12 mph 83.2% 0.01 in 207 W/m2
12:24 45.2 °F 40.4 °F 29.57 in South 3.8 mph 12 mph 83% 0.01 in 213 W/m2
12:29 45 °F 40.1 °F 29.57 in SSW 4.4 mph 14 mph 83% 0.01 in 290 W/m2
12:34 45.3 °F 40.5 °F 29.57 in SW 5.8 mph 15 mph 83% 0.01 in 315 W/m2
12:39 45.4 °F 40.6 °F 29.57 in SSW 4.2 mph 15 mph 83% 0.01 in 116 W/m2
12:44 45.1 °F 40.3 °F 29.57 in SSW 4.7 mph 21 mph 83% 0.01 in 74 W/m2
12:49 45 °F 40.1 °F 29.56 in South 9.2 mph 21 mph 83% 0.00 in 151 W/m2
12:54 45 °F 40.1 °F 29.56 in SW 7.4 mph 21 mph 83% 0.00 in 125 W/m2
12:59 45 °F 40.1 °F 29.56 in SW 10.2 mph 21 mph 83% 0.00 in 107 W/m2
13:04 44.8 °F 40.2 °F 29.56 in SW 7.3 mph 21 mph 83.5% 0.00 in 118 W/m2
13:09 44.8 °F 40.1 °F 29.56 in SW 6.1 mph 12 mph 83.6% 0.00 in 118 W/m2
13:14 44.8 °F 40 °F 29.56 in WSW 6.6 mph 16 mph 83.2% 0.00 in 243 W/m2
13:19 44.9 °F 40 °F 29.55 in WSW 9.1 mph 14 mph 83% 0.00 in 127 W/m2
13:24 44.8 °F 39.8 °F 29.55 in WSW 5.9 mph 19 mph 82.8% 0.00 in 167 W/m2
13:28 45 °F 40.2 °F 29.55 in SW 4.2 mph 11 mph 83% 0.00 in 216 W/m2
13:34 45.1 °F 40 °F 29.55 in WSW 5.4 mph 11 mph 82.2% 0.00 in 163 W/m2
13:39 45.1 °F 39.9 °F 29.55 in WSW 7.3 mph 15 mph 82% 0.00 in 165 W/m2
13:44 45.1 °F 39.9 °F 29.55 in WSW 5.6 mph 10 mph 82% 0.00 in 156 W/m2
13:49 45.1 °F 39.8 °F 29.55 in WSW 6.4 mph 10 mph 82% 0.00 in 62 W/m2
13:54 45 °F 39.6 °F 29.55 in WSW 8.2 mph 11 mph 81% 0.00 in 46 W/m2
13:59 44.8 °F 39.4 °F 29.55 in WSW 9.8 mph 13 mph 81.2% 0.00 in 37 W/m2
14:04 44.6 °F 39.4 °F 29.56 in WSW 7.2 mph 20 mph 82% 0.00 in 16 W/m2
14:09 43.7 °F 38.8 °F 29.56 in West 10 mph 20 mph 83% 0.01 in 28 W/m2
14:14 42.9 °F 38.5 °F 29.56 in West 6.8 mph 12 mph 84.4% 0.02 in 32 W/m2
14:19 42.5 °F 38.5 °F 29.56 in West 6.2 mph 19 mph 85.4% 0.02 in 25 W/m2
14:24 42.4 °F 38.5 °F 29.56 in West 2.5 mph 8 mph 86% 0.02 in 46 W/m2
14:29 42.4 °F 38.8 °F 29.57 in WSW 5.5 mph 9 mph 87% 0.02 in 46 W/m2
14:34 42.3 °F 38.8 °F 29.57 in WSW 4.1 mph 9 mph 87.4% 0.02 in 28 W/m2
14:39 42.3 °F 39 °F 29.57 in WSW 2.6 mph 6 mph 88% 0.02 in 37 W/m2
14:43 42.3 °F 39.1 °F 29.57 in WSW 4 mph 7 mph 88.3% 0.02 in 39 W/m2
14:49 42.3 °F 39.2 °F 29.57 in WSW 8.6 mph 19 mph 89% 0.02 in 18 W/m2
14:54 41.8 °F 38.7 °F 29.57 in West 7.6 mph 19 mph 89% 0.04 in 12 W/m2
14:59 41.1 °F 38 °F 29.57 in West 12.2 mph 24 mph 89% 0.05 in 21 W/m2
15:04 40.8 °F 37.8 °F 29.57 in West 4.1 mph 13 mph 89% 0.06 in 30 W/m2
15:09 40.8 °F 38.1 °F 29.57 in West 4.4 mph 18 mph 90% 0.05 in 28 W/m2
15:14 40.6 °F 37.9 °F 29.57 in West 5.4 mph 16 mph 90% 0.04 in 28 W/m2
15:18 40.6 °F 37.9 °F 29.57 in West 7 mph 13 mph 90% 0.04 in 26 W/m2
15:24 40.6 °F 37.9 °F 29.57 in West 6.8 mph 13 mph 90% 0.04 in 23 W/m2
15:29 40.5 °F 37.9 °F 29.57 in WNW 8.4 mph 18 mph 90.4% 0.04 in 11 W/m2
15:34 40.5 °F 38.1 °F 29.57 in WNW 6.3 mph 18 mph 91% 0.04 in 7 W/m2
15:39 40.5 °F 38.2 °F 29.57 in WNW 3.1 mph 9 mph 91% 0.04 in 7 W/m2
15:44 40.6 °F 38.3 °F 29.57 in WNW 2.4 mph 6 mph 91% 0.03 in 9 W/m2
15:49 40.5 °F 38.1 °F 29.57 in WNW 4.1 mph 8 mph 91% 0.03 in 11 W/m2
15:54 40.5 °F 38.1 °F 29.57 in West 3.2 mph 8 mph 91% 0.02 in 7 W/m2
15:59 40.5 °F 38.1 °F 29.57 in West 3.6 mph 8 mph 91% 0.01 in 5 W/m2
16:04 40.5 °F 38.1 °F 29.57 in West 0.9 mph 5 mph 91% 0.01 in 5 W/m2
16:09 40.3 °F 37.9 °F 29.57 in West 2.1 mph 6 mph 91% 0.00 in 0 W/m2
16:14 40.2 °F 37.8 °F 29.58 in West 2.3 mph 5 mph 91% 0.00 in 0 W/m2
16:19 39.9 °F 37.6 °F 29.58 in West 3.7 mph 7 mph 91% 0.00 in 0 W/m2
16:23 39.8 °F 37.5 °F 29.58 in West 3.6 mph 6 mph 91% 0.00 in 0 W/m2
16:29 39.7 °F 37.4 °F 29.58 in West 2.7 mph 5 mph 91% 0.00 in 0 W/m2
16:34 39.6 °F 37.3 °F 29.59 in West 2.5 mph 5 mph 91% 0.00 in 0 W/m2
16:39 39.6 °F 37.2 °F 29.59 in West 3.6 mph 6 mph 91% 0.00 in 0 W/m2
16:44 39.4 °F 37 °F 29.59 in WNW 4.4 mph 7 mph 91% 0.00 in 0 W/m2
16:49 39.3 °F 37 °F 29.59 in WNW 2.2 mph 5 mph 91% 0.00 in 0 W/m2
16:54 39.2 °F 36.9 °F 29.59 in WNW 2.9 mph 5 mph 91% 0.00 in 0 W/m2
16:59 39.2 °F 36.9 °F 29.59 in WNW 2.7 mph 5 mph 91% 0.00 in 0 W/m2
17:04 39 °F 36.7 °F 29.59 in WNW 3.3 mph 6 mph 91% 0.00 in 0 W/m2
17:09 39 °F 36.8 °F 29.59 in WNW 2.8 mph 5 mph 91.6% 0.00 in 0 W/m2
17:14 39 °F 36.9 °F 29.60 in WNW 3.9 mph 7 mph 92% 0.00 in 0 W/m2
17:19 38.9 °F 36.8 °F 29.60 in WNW 3.2 mph 7 mph 92% 0.00 in 0 W/m2
17:24 38.8 °F 36.7 °F 29.60 in WNW 2.3 mph 6 mph 92% 0.00 in 0 W/m2
17:29 38.8 °F 36.7 °F 29.60 in WNW 1.2 mph 4 mph 92% 0.00 in 0 W/m2
17:34 38.7 °F 36.5 °F 29.60 in WNW 1.9 mph 6 mph 92% 0.00 in 0 W/m2
17:39 38.7 °F 36.5 °F 29.60 in WNW 3.4 mph 6 mph 92% 0.00 in 0 W/m2
17:44 38.8 °F 36.7 °F 29.60 in WNW 0.9 mph 5 mph 92% 0.00 in 0 W/m2
17:49 38.8 °F 36.6 °F 29.61 in WNW 1.1 mph 4 mph 92% 0.00 in 0 W/m2
17:54 38.7 °F 36.5 °F 29.61 in WNW 3.2 mph 6 mph 92% 0.00 in 0 W/m2
17:59 38.5 °F 36.3 °F 29.61 in WNW 2.5 mph 6 mph 92% 0.00 in 0 W/m2
18:04 38.5 °F 36.3 °F 29.61 in WNW 1 mph 5 mph 92% 0.00 in 0 W/m2
18:09 38.5 °F 36.3 °F 29.61 in WNW 1.8 mph 4 mph 92% 0.00 in 0 W/m2
18:14 38.5 °F 36.3 °F 29.61 in WNW 2.7 mph 5 mph 92% 0.00 in 0 W/m2
18:19 38.5 °F 36.3 °F 29.61 in WNW 2.9 mph 6 mph 92% 0.00 in 0 W/m2
18:24 38.5 °F 36.3 °F 29.62 in WNW 2.3 mph 6 mph 92% 0.00 in 0 W/m2
18:29 38.5 °F 36.3 °F 29.62 in WNW 2.5 mph 4 mph 92% 0.00 in 0 W/m2
18:34 38.5 °F 36.3 °F 29.62 in WNW 3.4 mph 5 mph 92% 0.00 in 0 W/m2
18:39 38.3 °F 36.1 °F 29.62 in WNW 2.5 mph 5 mph 92% 0.00 in 0 W/m2
18:44 38.4 °F 36.2 °F 29.62 in WNW 4 mph 6 mph 92% 0.00 in 0 W/m2
18:49 38.5 °F 36.3 °F 29.62 in WNW 2.4 mph 6 mph 92% 0.00 in 0 W/m2
18:54 38.4 °F 36.2 °F 29.62 in WNW 1.9 mph 5 mph 92% 0.00 in 0 W/m2
18:58 38.2 °F 36 °F 29.62 in WNW 2.4 mph 5 mph 92% 0.00 in 0 W/m2
19:04 38 °F 35.9 °F 29.62 in WNW 1.2 mph 4 mph 92% 0.00 in 0 W/m2
19:09 37.9 °F 35.8 °F 29.63 in WNW 2.2 mph 4 mph 92% 0.00 in 0 W/m2
19:14 37.9 °F 35.8 °F 29.63 in WNW 2.1 mph 4 mph 92% 0.00 in 0 W/m2
19:19 37.9 °F 35.8 °F 29.63 in WNW 2.2 mph 5 mph 92% 0.00 in 0 W/m2
19:24 37.9 °F 35.8 °F 29.63 in WNW 2.2 mph 4 mph 92% 0.00 in 0 W/m2
19:29 37.9 °F 35.8 °F 29.63 in WNW 1 mph 4 mph 92% 0.00 in 0 W/m2
19:34 38 °F 35.9 °F 29.63 in WNW 0.2 mph 1 mph 92% 0.00 in 0 W/m2
19:39 37.9 °F 35.8 °F 29.63 in Calm   1 mph 92% 0.00 in 0 W/m2
19:44 37.6 °F 35.4 °F 29.63 in WNW 0.8 mph 6 mph 92% 0.00 in 0 W/m2
19:49 37.6 °F 35.4 °F 29.63 in Calm   6 mph 92% 0.00 in 0 W/m2
19:54 37.4 °F 35.2 °F 29.64 in Calm   6 mph 92% 0.00 in 0 W/m2
19:59 37 °F 34.9 °F 29.64 in WNW 0.2 mph 6 mph 92% 0.00 in 0 W/m2
20:04 36.9 °F 34.7 °F 29.64 in Calm     92% 0.00 in 0 W/m2
20:09 36.9 °F 34.7 °F 29.64 in Calm   2 mph 92% 0.00 in 0 W/m2
20:14 36.7 °F 34.5 °F 29.64 in Calm     92% 0.00 in 0 W/m2
20:19 36.5 °F 34.3 °F 29.64 in Calm   1 mph 92% 0.00 in 0 W/m2
20:24 36.3 °F 34.2 °F 29.64 in WNW 0.2 mph 1 mph 92% 0.00 in 0 W/m2
20:29 36.1 °F 34 °F 29.64 in WNW 0.4 mph 2 mph 92% 0.00 in 0 W/m2
20:33 36.1 °F 34 °F 29.65 in Calm   2 mph 92% 0.00 in 0 W/m2
20:39 36.1 °F 34 °F 29.65 in Calm   1 mph 92% 0.00 in 0 W/m2
20:44 36.1 °F 34 °F 29.65 in WNW 0.4 mph 2 mph 92% 0.00 in 0 W/m2
20:49 36.1 °F 34 °F 29.65 in Calm   2 mph 92% 0.00 in 0 W/m2
20:54 36.1 °F 34 °F 29.64 in Calm     92.2% 0.00 in 0 W/m2
20:59 36 °F 34.2 °F 29.64 in Calm     93% 0.00 in 0 W/m2
21:04 35.8 °F 34 °F 29.64 in Calm     93% 0.00 in 0 W/m2
21:09 35.5 °F 33.5 °F 29.64 in Calm     92.4% 0.00 in 0 W/m2
21:14 35.2 °F 33.3 °F 29.64 in Calm     92.6% 0.00 in 0 W/m2
21:19 35.1 °F 32.9 °F 29.64 in Calm     92% 0.00 in 0 W/m2
21:24 35.1 °F 32.9 °F 29.64 in Calm     92% 0.00 in 0 W/m2
21:29 34.9 °F 33.1 °F 29.64 in Calm     92.8% 0.00 in 0 W/m2
21:34 34.8 °F 33 °F 29.64 in Calm     93% 0.00 in 0 W/m2
21:39 34.6 °F 32.8 °F 29.64 in Calm     93% 0.00 in 0 W/m2
21:44 34.5 °F 32.7 °F 29.64 in Calm     93% 0.00 in 0 W/m2
21:49 34.5 °F 32.7 °F 29.64 in Calm     93% 0.00 in 0 W/m2
21:54 34.8 °F 33 °F 29.64 in Calm     93% 0.00 in 0 W/m2
21:59 35 °F 33.2 °F 29.64 in WNW 1.6 mph 3 mph 93% 0.00 in 0 W/m2
22:04 35.2 °F 33.4 °F 29.65 in WNW 1.6 mph 3 mph 93% 0.00 in 0 W/m2
22:09 35.2 °F 33.4 °F 29.64 in Calm   2 mph 93% 0.00 in 0 W/m2
22:14 35.1 °F 33.3 °F 29.65 in Calm   1 mph 93% 0.00 in 0 W/m2
22:19 35.1 °F 33.3 °F 29.65 in Calm   1 mph 93% 0.00 in 0 W/m2
22:24 34.9 °F 33.1 °F 29.65 in Calm     93% 0.00 in 0 W/m2
22:29 34.9 °F 33.1 °F 29.64 in Calm     93% 0.00 in 0 W/m2
22:34 34.8 °F 33 °F 29.64 in Calm     93% 0.00 in 0 W/m2
22:39 34.7 °F 32.9 °F 29.65 in Calm     93% 0.00 in 0 W/m2
22:44 34.6 °F 32.8 °F 29.64 in Calm     93% 0.00 in 0 W/m2
22:49 34.6 °F 32.8 °F 29.64 in Calm     93% 0.00 in 0 W/m2
22:54 34.6 °F 32.8 °F 29.64 in Calm     93% 0.00 in 0 W/m2
22:59 34.7 °F 32.9 °F 29.64 in Calm     93% 0.00 in 0 W/m2
23:04 34.6 °F 32.8 °F 29.64 in WNW 0.4 mph 2 mph 93% 0.00 in 0 W/m2
23:09 34.6 °F 32.8 °F 29.64 in Calm   1 mph 93% 0.00 in 0 W/m2
23:14 34.6 °F 32.8 °F 29.64 in Calm     93% 0.00 in 0 W/m2
23:19 34.5 °F 32.7 °F 29.65 in Calm     93% 0.00 in 0 W/m2
23:24 34.3 °F 32.5 °F 29.65 in WNW 0.2 mph 1 mph 93% 0.00 in 0 W/m2
23:29 34.4 °F 32.7 °F 29.65 in WNW 1.4 mph 3 mph 93.4% 0.00 in 0 W/m2
23:34 34.8 °F 33.1 °F 29.65 in WNW 1.7 mph 5 mph 93.4% 0.00 in 0 W/m2
23:39 35.4 °F 33.8 °F 29.64 in WNW 2.5 mph 5 mph 93.8% 0.00 in 0 W/m2
23:43 36 °F 34.3 °F 29.64 in WNW 1.5 mph 5 mph 94% 0.00 in 0 W/m2
23:49 36.3 °F 34.7 °F 29.64 in West 1.3 mph 3 mph 94% 0.00 in 0 W/m2
23:54 36.5 °F 34.9 °F 29.64 in West 0.4 mph 3 mph 94% 0.00 in 0 W/m2
23:59 36.5 °F 34.9 °F 29.63 in West 0.8 mph 3 mph 94% 0.00 in 0 W/m2
Bath Spa Weather
Compliments of Weather Underground - 2 mb